sensor_id;sensor_type;location;lat;lon;timestamp;P1;durP1;ratioP1;P2;durP2;ratioP2
3571;SDS011;7958;53.024;12.970;2023-04-15T00:01:07;35.07;;;21.17;;
3571;SDS011;7958;53.024;12.970;2023-04-15T00:03:34;43.37;;;23.37;;
3571;SDS011;7958;53.024;12.970;2023-04-15T00:06:00;40.73;;;21.53;;
3571;SDS011;7958;53.024;12.970;2023-04-15T00:08:28;38.80;;;21.93;;
3571;SDS011;7958;53.024;12.970;2023-04-15T00:10:55;45.93;;;23.40;;
3571;SDS011;7958;53.024;12.970;2023-04-15T00:13:24;45.40;;;24.67;;
3571;SDS011;7958;53.024;12.970;2023-04-15T00:15:51;43.53;;;24.00;;
3571;SDS011;7958;53.024;12.970;2023-04-15T00:18:18;45.83;;;24.27;;
3571;SDS011;7958;53.024;12.970;2023-04-15T00:20:44;43.77;;;24.20;;
3571;SDS011;7958;53.024;12.970;2023-04-15T00:23:11;50.20;;;23.80;;
3571;SDS011;7958;53.024;12.970;2023-04-15T00:25:38;48.50;;;25.50;;
3571;SDS011;7958;53.024;12.970;2023-04-15T00:28:04;44.77;;;23.80;;
3571;SDS011;7958;53.024;12.970;2023-04-15T00:30:32;45.43;;;24.67;;
3571;SDS011;7958;53.024;12.970;2023-04-15T00:32:59;53.80;;;25.60;;
3571;SDS011;7958;53.024;12.970;2023-04-15T00:35:26;48.13;;;24.47;;
3571;SDS011;7958;53.024;12.970;2023-04-15T00:37:52;52.90;;;26.93;;
3571;SDS011;7958;53.024;12.970;2023-04-15T00:40:20;53.07;;;26.40;;
3571;SDS011;7958;53.024;12.970;2023-04-15T00:42:48;53.80;;;27.53;;
3571;SDS011;7958;53.024;12.970;2023-04-15T00:45:15;46.50;;;26.60;;
3571;SDS011;7958;53.024;12.970;2023-04-15T00:47:43;48.27;;;24.70;;
3571;SDS011;7958;53.024;12.970;2023-04-15T00:50:10;48.67;;;25.73;;
3571;SDS011;7958;53.024;12.970;2023-04-15T00:52:37;54.67;;;26.17;;
3571;SDS011;7958;53.024;12.970;2023-04-15T00:55:04;44.70;;;24.60;;
3571;SDS011;7958;53.024;12.970;2023-04-15T00:57:31;47.97;;;27.57;;
3571;SDS011;7958;53.024;12.970;2023-04-15T00:59:58;44.73;;;25.73;;
3571;SDS011;7958;53.024;12.970;2023-04-15T01:02:25;50.97;;;25.17;;
3571;SDS011;7958;53.024;12.970;2023-04-15T01:04:53;45.07;;;24.40;;
3571;SDS011;7958;53.024;12.970;2023-04-15T01:07:20;46.90;;;25.00;;
3571;SDS011;7958;53.024;12.970;2023-04-15T01:09:46;44.40;;;24.50;;
3571;SDS011;7958;53.024;12.970;2023-04-15T01:12:13;48.80;;;25.17;;
3571;SDS011;7958;53.024;12.970;2023-04-15T01:14:40;49.87;;;25.97;;
3571;SDS011;7958;53.024;12.970;2023-04-15T01:17:06;46.17;;;25.40;;
3571;SDS011;7958;53.024;12.970;2023-04-15T01:19:33;51.20;;;26.50;;
3571;SDS011;7958;53.024;12.970;2023-04-15T01:22:01;45.67;;;24.67;;
3571;SDS011;7958;53.024;12.970;2023-04-15T01:24:28;45.10;;;24.10;;
3571;SDS011;7958;53.024;12.970;2023-04-15T01:26:57;42.93;;;24.43;;
3571;SDS011;7958;53.024;12.970;2023-04-15T01:29:24;52.97;;;26.50;;
3571;SDS011;7958;53.024;12.970;2023-04-15T01:31:53;52.83;;;26.50;;
3571;SDS011;7958;53.024;12.970;2023-04-15T01:34:20;56.63;;;26.27;;
3571;SDS011;7958;53.024;12.970;2023-04-15T01:36:47;45.63;;;25.33;;
3571;SDS011;7958;53.024;12.970;2023-04-15T01:39:13;50.60;;;26.77;;
3571;SDS011;7958;53.024;12.970;2023-04-15T01:41:40;48.87;;;26.67;;
3571;SDS011;7958;53.024;12.970;2023-04-15T01:44:08;48.90;;;26.30;;
3571;SDS011;7958;53.024;12.970;2023-04-15T01:46:35;53.57;;;28.50;;
3571;SDS011;7958;53.024;12.970;2023-04-15T01:49:02;46.80;;;25.50;;
3571;SDS011;7958;53.024;12.970;2023-04-15T01:51:29;52.63;;;25.90;;
3571;SDS011;7958;53.024;12.970;2023-04-15T01:53:56;46.60;;;24.10;;
3571;SDS011;7958;53.024;12.970;2023-04-15T01:56:22;47.50;;;25.70;;
3571;SDS011;7958;53.024;12.970;2023-04-15T01:58:49;51.27;;;25.50;;
3571;SDS011;7958;53.024;12.970;2023-04-15T02:01:17;52.53;;;25.90;;
3571;SDS011;7958;53.024;12.970;2023-04-15T02:03:44;49.40;;;26.00;;
3571;SDS011;7958;53.024;12.970;2023-04-15T02:06:11;51.93;;;27.57;;
3571;SDS011;7958;53.024;12.970;2023-04-15T02:08:37;53.50;;;26.43;;
3571;SDS011;7958;53.024;12.970;2023-04-15T02:11:04;54.50;;;27.73;;
3571;SDS011;7958;53.024;12.970;2023-04-15T02:13:30;55.53;;;26.90;;
3571;SDS011;7958;53.024;12.970;2023-04-15T02:15:56;47.27;;;26.07;;
3571;SDS011;7958;53.024;12.970;2023-04-15T02:18:25;46.20;;;25.40;;
3571;SDS011;7958;53.024;12.970;2023-04-15T02:20:51;45.47;;;25.03;;
3571;SDS011;7958;53.024;12.970;2023-04-15T02:23:18;48.43;;;26.30;;
3571;SDS011;7958;53.024;12.970;2023-04-15T02:25:44;43.47;;;24.17;;
3571;SDS011;7958;53.024;12.970;2023-04-15T02:28:11;43.73;;;24.20;;
3571;SDS011;7958;53.024;12.970;2023-04-15T02:30:37;43.73;;;25.10;;
3571;SDS011;7958;53.024;12.970;2023-04-15T02:33:04;44.40;;;24.57;;
3571;SDS011;7958;53.024;12.970;2023-04-15T02:35:33;48.97;;;24.80;;
3571;SDS011;7958;53.024;12.970;2023-04-15T02:38:02;49.83;;;25.73;;
3571;SDS011;7958;53.024;12.970;2023-04-15T02:40:28;47.87;;;25.60;;
3571;SDS011;7958;53.024;12.970;2023-04-15T02:42:55;50.10;;;26.37;;
3571;SDS011;7958;53.024;12.970;2023-04-15T02:45:21;47.67;;;25.37;;
3571;SDS011;7958;53.024;12.970;2023-04-15T02:47:50;45.27;;;25.67;;
3571;SDS011;7958;53.024;12.970;2023-04-15T02:50:16;44.20;;;26.20;;
3571;SDS011;7958;53.024;12.970;2023-04-15T02:52:46;50.30;;;25.27;;
3571;SDS011;7958;53.024;12.970;2023-04-15T02:55:12;51.53;;;25.87;;
3571;SDS011;7958;53.024;12.970;2023-04-15T02:57:38;46.33;;;25.60;;
3571;SDS011;7958;53.024;12.970;2023-04-15T03:00:06;47.37;;;24.70;;
3571;SDS011;7958;53.024;12.970;2023-04-15T03:02:35;53.30;;;25.77;;
3571;SDS011;7958;53.024;12.970;2023-04-15T03:05:02;47.67;;;25.63;;
3571;SDS011;7958;53.024;12.970;2023-04-15T03:07:29;48.50;;;24.70;;
3571;SDS011;7958;53.024;12.970;2023-04-15T03:09:57;44.50;;;24.23;;
3571;SDS011;7958;53.024;12.970;2023-04-15T03:12:24;43.63;;;24.67;;
3571;SDS011;7958;53.024;12.970;2023-04-15T03:14:50;45.73;;;25.33;;
3571;SDS011;7958;53.024;12.970;2023-04-15T03:17:16;42.60;;;25.17;;
3571;SDS011;7958;53.024;12.970;2023-04-15T03:19:43;42.77;;;25.30;;
3571;SDS011;7958;53.024;12.970;2023-04-15T03:22:09;45.53;;;25.37;;
3571;SDS011;7958;53.024;12.970;2023-04-15T03:24:35;41.60;;;24.30;;
3571;SDS011;7958;53.024;12.970;2023-04-15T03:27:03;46.03;;;24.70;;
3571;SDS011;7958;53.024;12.970;2023-04-15T03:29:30;37.57;;;24.20;;
3571;SDS011;7958;53.024;12.970;2023-04-15T03:31:57;41.70;;;24.00;;
3571;SDS011;7958;53.024;12.970;2023-04-15T03:34:23;42.00;;;24.27;;
3571;SDS011;7958;53.024;12.970;2023-04-15T03:36:49;40.77;;;23.40;;
3571;SDS011;7958;53.024;12.970;2023-04-15T03:39:16;36.63;;;22.30;;
3571;SDS011;7958;53.024;12.970;2023-04-15T03:41:42;39.20;;;23.50;;
3571;SDS011;7958;53.024;12.970;2023-04-15T03:44:10;43.40;;;25.40;;
3571;SDS011;7958;53.024;12.970;2023-04-15T03:46:36;43.50;;;24.67;;
3571;SDS011;7958;53.024;12.970;2023-04-15T03:49:03;38.83;;;22.83;;
3571;SDS011;7958;53.024;12.970;2023-04-15T03:51:31;41.20;;;23.20;;
3571;SDS011;7958;53.024;12.970;2023-04-15T03:53:57;39.93;;;23.70;;
3571;SDS011;7958;53.024;12.970;2023-04-15T03:56:23;39.10;;;22.60;;
3571;SDS011;7958;53.024;12.970;2023-04-15T03:58:50;35.43;;;22.40;;
3571;SDS011;7958;53.024;12.970;2023-04-15T04:01:17;41.57;;;22.80;;
3571;SDS011;7958;53.024;12.970;2023-04-15T04:03:44;43.17;;;24.37;;
3571;SDS011;7958;53.024;12.970;2023-04-15T04:06:10;38.20;;;23.30;;
3571;SDS011;7958;53.024;12.970;2023-04-15T04:08:37;36.33;;;23.00;;
3571;SDS011;7958;53.024;12.970;2023-04-15T04:11:04;40.07;;;24.30;;
3571;SDS011;7958;53.024;12.970;2023-04-15T04:13:30;38.00;;;22.20;;
3571;SDS011;7958;53.024;12.970;2023-04-15T04:15:56;41.97;;;21.90;;
3571;SDS011;7958;53.024;12.970;2023-04-15T04:18:24;30.87;;;21.00;;
3571;SDS011;7958;53.024;12.970;2023-04-15T04:20:50;34.70;;;22.20;;
3571;SDS011;7958;53.024;12.970;2023-04-15T04:23:17;31.03;;;19.63;;
3571;SDS011;7958;53.024;12.970;2023-04-15T04:25:43;33.27;;;21.80;;
3571;SDS011;7958;53.024;12.970;2023-04-15T04:28:10;35.17;;;20.73;;
3571;SDS011;7958;53.024;12.970;2023-04-15T04:30:36;32.20;;;20.63;;
3571;SDS011;7958;53.024;12.970;2023-04-15T04:33:03;32.27;;;21.43;;
3571;SDS011;7958;53.024;12.970;2023-04-15T04:35:30;30.57;;;19.63;;
3571;SDS011;7958;53.024;12.970;2023-04-15T04:37:58;33.10;;;20.83;;
3571;SDS011;7958;53.024;12.970;2023-04-15T04:40:25;32.93;;;20.10;;
3571;SDS011;7958;53.024;12.970;2023-04-15T04:42:51;31.60;;;20.73;;
3571;SDS011;7958;53.024;12.970;2023-04-15T04:45:18;29.23;;;19.10;;
3571;SDS011;7958;53.024;12.970;2023-04-15T04:47:44;31.70;;;20.70;;
3571;SDS011;7958;53.024;12.970;2023-04-15T04:50:11;29.50;;;18.50;;
3571;SDS011;7958;53.024;12.970;2023-04-15T04:52:39;27.60;;;18.83;;
3571;SDS011;7958;53.024;12.970;2023-04-15T04:55:06;28.40;;;19.23;;
3571;SDS011;7958;53.024;12.970;2023-04-15T04:57:32;28.00;;;19.00;;
3571;SDS011;7958;53.024;12.970;2023-04-15T04:59:59;28.00;;;19.00;;
3571;SDS011;7958;53.024;12.970;2023-04-15T05:02:27;32.97;;;20.57;;
3571;SDS011;7958;53.024;12.970;2023-04-15T05:04:53;27.73;;;19.20;;
3571;SDS011;7958;53.024;12.970;2023-04-15T05:07:20;25.50;;;17.90;;
3571;SDS011;7958;53.024;12.970;2023-04-15T05:09:47;28.33;;;17.57;;
3571;SDS011;7958;53.024;12.970;2023-04-15T05:12:14;28.03;;;17.60;;
3571;SDS011;7958;53.024;12.970;2023-04-15T05:14:42;24.43;;;15.80;;
3571;SDS011;7958;53.024;12.970;2023-04-15T05:17:08;22.93;;;16.30;;
3571;SDS011;7958;53.024;12.970;2023-04-15T05:19:35;24.90;;;17.77;;
3571;SDS011;7958;53.024;12.970;2023-04-15T05:22:01;22.03;;;16.47;;
3571;SDS011;7958;53.024;12.970;2023-04-15T05:24:27;22.13;;;16.00;;
3571;SDS011;7958;53.024;12.970;2023-04-15T05:26:55;35.73;;;16.37;;
3571;SDS011;7958;53.024;12.970;2023-04-15T05:29:22;21.80;;;16.60;;
3571;SDS011;7958;53.024;12.970;2023-04-15T05:31:48;21.80;;;15.47;;
3571;SDS011;7958;53.024;12.970;2023-04-15T05:34:14;23.10;;;15.93;;
3571;SDS011;7958;53.024;12.970;2023-04-15T05:36:41;20.73;;;15.83;;
3571;SDS011;7958;53.024;12.970;2023-04-15T05:39:07;20.47;;;15.40;;
3571;SDS011;7958;53.024;12.970;2023-04-15T05:41:34;21.40;;;15.50;;
3571;SDS011;7958;53.024;12.970;2023-04-15T05:44:03;19.93;;;15.10;;
3571;SDS011;7958;53.024;12.970;2023-04-15T05:46:30;23.93;;;15.50;;
3571;SDS011;7958;53.024;12.970;2023-04-15T05:48:56;21.60;;;15.33;;
3571;SDS011;7958;53.024;12.970;2023-04-15T05:51:22;19.83;;;14.60;;
3571;SDS011;7958;53.024;12.970;2023-04-15T05:53:49;18.70;;;14.33;;
3571;SDS011;7958;53.024;12.970;2023-04-15T05:56:15;19.20;;;14.67;;
3571;SDS011;7958;53.024;12.970;2023-04-15T05:58:41;19.13;;;14.57;;
3571;SDS011;7958;53.024;12.970;2023-04-15T06:01:09;16.93;;;13.17;;
3571;SDS011;7958;53.024;12.970;2023-04-15T06:03:36;21.37;;;13.10;;
3571;SDS011;7958;53.024;12.970;2023-04-15T06:06:03;15.47;;;11.73;;
3571;SDS011;7958;53.024;12.970;2023-04-15T06:08:30;15.80;;;12.57;;
3571;SDS011;7958;53.024;12.970;2023-04-15T06:10:57;15.00;;;12.03;;
3571;SDS011;7958;53.024;12.970;2023-04-15T06:13:23;17.03;;;12.57;;
3571;SDS011;7958;53.024;12.970;2023-04-15T06:15:50;17.57;;;12.07;;
3571;SDS011;7958;53.024;12.970;2023-04-15T06:18:18;16.70;;;12.57;;
3571;SDS011;7958;53.024;12.970;2023-04-15T06:20:44;13.70;;;11.70;;
3571;SDS011;7958;53.024;12.970;2023-04-15T06:23:10;14.60;;;11.00;;
3571;SDS011;7958;53.024;12.970;2023-04-15T06:25:37;15.40;;;11.50;;
3571;SDS011;7958;53.024;12.970;2023-04-15T06:28:04;13.10;;;11.00;;
3571;SDS011;7958;53.024;12.970;2023-04-15T06:30:30;16.43;;;11.50;;
3571;SDS011;7958;53.024;12.970;2023-04-15T06:32:56;15.10;;;11.00;;
3571;SDS011;7958;53.024;12.970;2023-04-15T06:35:24;11.70;;;10.40;;
3571;SDS011;7958;53.024;12.970;2023-04-15T06:37:51;14.83;;;10.50;;
3571;SDS011;7958;53.024;12.970;2023-04-15T06:40:17;13.93;;;10.27;;
3571;SDS011;7958;53.024;12.970;2023-04-15T06:42:44;12.60;;;10.17;;
3571;SDS011;7958;53.024;12.970;2023-04-15T06:45:10;13.30;;;10.53;;
3571;SDS011;7958;53.024;12.970;2023-04-15T06:47:37;10.77;;;9.30;;
3571;SDS011;7958;53.024;12.970;2023-04-15T06:50:03;14.40;;;11.00;;
3571;SDS011;7958;53.024;12.970;2023-04-15T06:52:32;10.53;;;9.20;;
3571;SDS011;7958;53.024;12.970;2023-04-15T06:54:58;12.20;;;10.10;;
3571;SDS011;7958;53.024;12.970;2023-04-15T06:57:25;10.57;;;9.47;;
3571;SDS011;7958;53.024;12.970;2023-04-15T06:59:51;12.23;;;9.17;;
3571;SDS011;7958;53.024;12.970;2023-04-15T07:02:18;10.70;;;8.83;;
3571;SDS011;7958;53.024;12.970;2023-04-15T07:04:45;11.60;;;9.73;;
3571;SDS011;7958;53.024;12.970;2023-04-15T07:07:11;9.70;;;8.63;;
3571;SDS011;7958;53.024;12.970;2023-04-15T07:09:40;9.80;;;8.80;;
3571;SDS011;7958;53.024;12.970;2023-04-15T07:12:07;9.37;;;8.47;;
3571;SDS011;7958;53.024;12.970;2023-04-15T07:14:33;11.67;;;9.67;;
3571;SDS011;7958;53.024;12.970;2023-04-15T07:17:00;16.10;;;10.10;;
3571;SDS011;7958;53.024;12.970;2023-04-15T07:19:27;12.73;;;10.47;;
3571;SDS011;7958;53.024;12.970;2023-04-15T07:21:53;9.37;;;8.47;;
3571;SDS011;7958;53.024;12.970;2023-04-15T07:24:19;13.07;;;9.93;;
3571;SDS011;7958;53.024;12.970;2023-04-15T07:26:51;10.70;;;9.60;;
3571;SDS011;7958;53.024;12.970;2023-04-15T07:29:18;14.10;;;9.10;;
3571;SDS011;7958;53.024;12.970;2023-04-15T07:31:45;10.30;;;9.17;;
3571;SDS011;7958;53.024;12.970;2023-04-15T07:34:11;9.70;;;8.53;;
3571;SDS011;7958;53.024;12.970;2023-04-15T07:36:37;9.90;;;8.90;;
3571;SDS011;7958;53.024;12.970;2023-04-15T07:39:04;13.00;;;9.77;;
3571;SDS011;7958;53.024;12.970;2023-04-15T07:43:58;10.60;;;9.00;;
3571;SDS011;7958;53.024;12.970;2023-04-15T07:46:24;12.43;;;9.67;;
3571;SDS011;7958;53.024;12.970;2023-04-15T07:48:51;10.93;;;8.90;;
3571;SDS011;7958;53.024;12.970;2023-04-15T07:51:17;11.80;;;9.23;;
3571;SDS011;7958;53.024;12.970;2023-04-15T07:53:45;15.30;;;9.33;;
3571;SDS011;7958;53.024;12.970;2023-04-15T07:56:11;10.30;;;9.30;;
3571;SDS011;7958;53.024;12.970;2023-04-15T07:58:37;13.20;;;9.70;;
3571;SDS011;7958;53.024;12.970;2023-04-15T08:01:05;15.03;;;9.90;;
3571;SDS011;7958;53.024;12.970;2023-04-15T08:03:32;16.37;;;10.97;;
3571;SDS011;7958;53.024;12.970;2023-04-15T08:05:58;13.20;;;9.90;;
3571;SDS011;7958;53.024;12.970;2023-04-15T08:08:24;11.57;;;9.70;;
3571;SDS011;7958;53.024;12.970;2023-04-15T08:10:51;12.53;;;9.13;;
3571;SDS011;7958;53.024;12.970;2023-04-15T08:13:18;14.30;;;9.20;;
3571;SDS011;7958;53.024;12.970;2023-04-15T08:15:44;12.20;;;9.47;;
3571;SDS011;7958;53.024;12.970;2023-04-15T08:18:12;10.53;;;9.10;;
3571;SDS011;7958;53.024;12.970;2023-04-15T08:20:40;13.83;;;10.57;;
3571;SDS011;7958;53.024;12.970;2023-04-15T08:23:07;11.63;;;10.07;;
3571;SDS011;7958;53.024;12.970;2023-04-15T08:25:34;11.30;;;9.60;;
3571;SDS011;7958;53.024;12.970;2023-04-15T08:28:02;10.17;;;9.17;;
3571;SDS011;7958;53.024;12.970;2023-04-15T08:30:29;12.40;;;10.17;;
3571;SDS011;7958;53.024;12.970;2023-04-15T08:32:55;13.83;;;10.30;;
3571;SDS011;7958;53.024;12.970;2023-04-15T08:35:23;10.70;;;9.50;;
3571;SDS011;7958;53.024;12.970;2023-04-15T08:37:49;10.90;;;9.10;;
3571;SDS011;7958;53.024;12.970;2023-04-15T08:40:16;11.97;;;10.03;;
3571;SDS011;7958;53.024;12.970;2023-04-15T08:42:43;10.93;;;9.77;;
3571;SDS011;7958;53.024;12.970;2023-04-15T08:45:10;14.10;;;11.20;;
3571;SDS011;7958;53.024;12.970;2023-04-15T08:47:36;12.10;;;10.77;;
3571;SDS011;7958;53.024;12.970;2023-04-15T08:50:05;14.93;;;10.30;;
3571;SDS011;7958;53.024;12.970;2023-04-15T08:52:36;12.47;;;10.30;;
3571;SDS011;7958;53.024;12.970;2023-04-15T08:55:02;12.70;;;11.17;;
3571;SDS011;7958;53.024;12.970;2023-04-15T08:57:30;11.73;;;10.30;;
3571;SDS011;7958;53.024;12.970;2023-04-15T08:59:56;11.30;;;10.20;;
3571;SDS011;7958;53.024;12.970;2023-04-15T09:02:23;11.50;;;9.97;;
3571;SDS011;7958;53.024;12.970;2023-04-15T09:04:51;12.63;;;10.60;;
3571;SDS011;7958;53.024;12.970;2023-04-15T09:07:19;11.27;;;10.17;;
3571;SDS011;7958;53.024;12.970;2023-04-15T09:09:48;14.00;;;10.20;;
3571;SDS011;7958;53.024;12.970;2023-04-15T09:12:15;12.10;;;10.90;;
3571;SDS011;7958;53.024;12.970;2023-04-15T09:14:44;15.60;;;10.77;;
3571;SDS011;7958;53.024;12.970;2023-04-15T09:17:10;14.40;;;10.20;;
3571;SDS011;7958;53.024;12.970;2023-04-15T09:19:37;14.23;;;11.80;;
3571;SDS011;7958;53.024;12.970;2023-04-15T09:22:03;18.43;;;11.30;;
3571;SDS011;7958;53.024;12.970;2023-04-15T09:24:33;11.83;;;10.20;;
3571;SDS011;7958;53.024;12.970;2023-04-15T09:27:04;11.67;;;10.47;;
3571;SDS011;7958;53.024;12.970;2023-04-15T09:29:31;12.50;;;11.07;;
3571;SDS011;7958;53.024;12.970;2023-04-15T09:32:07;13.20;;;11.80;;
3571;SDS011;7958;53.024;12.970;2023-04-15T09:34:35;12.27;;;10.97;;
3571;SDS011;7958;53.024;12.970;2023-04-15T09:37:03;12.10;;;10.80;;
3571;SDS011;7958;53.024;12.970;2023-04-15T09:39:43;11.73;;;10.57;;
3571;SDS011;7958;53.024;12.970;2023-04-15T09:42:12;12.80;;;10.60;;
3571;SDS011;7958;53.024;12.970;2023-04-15T09:44:39;13.67;;;11.37;;
3571;SDS011;7958;53.024;12.970;2023-04-15T09:47:06;15.60;;;9.50;;
3571;SDS011;7958;53.024;12.970;2023-04-15T09:49:32;11.93;;;10.63;;
3571;SDS011;7958;53.024;12.970;2023-04-15T09:51:59;12.10;;;10.80;;
3571;SDS011;7958;53.024;12.970;2023-04-15T09:54:32;12.07;;;10.20;;
3571;SDS011;7958;53.024;12.970;2023-04-15T09:57:05;12.37;;;11.07;;
3571;SDS011;7958;53.024;12.970;2023-04-15T09:59:34;13.40;;;10.93;;
3571;SDS011;7958;53.024;12.970;2023-04-15T10:02:00;12.23;;;10.70;;
3571;SDS011;7958;53.024;12.970;2023-04-15T10:04:29;15.87;;;11.20;;
3571;SDS011;7958;53.024;12.970;2023-04-15T10:06:57;12.80;;;11.40;;
3571;SDS011;7958;53.024;12.970;2023-04-15T10:09:24;12.53;;;11.23;;
3571;SDS011;7958;53.024;12.970;2023-04-15T10:11:50;12.27;;;10.93;;
3571;SDS011;7958;53.024;12.970;2023-04-15T10:14:18;12.93;;;11.53;;
3571;SDS011;7958;53.024;12.970;2023-04-15T10:16:46;16.03;;;11.60;;
3571;SDS011;7958;53.024;12.970;2023-04-15T10:19:14;13.20;;;11.77;;
3571;SDS011;7958;53.024;12.970;2023-04-15T10:21:41;15.70;;;13.10;;
3571;SDS011;7958;53.024;12.970;2023-04-15T10:24:10;17.83;;;15.87;;
3571;SDS011;7958;53.024;12.970;2023-04-15T10:26:37;19.27;;;15.70;;
3571;SDS011;7958;53.024;12.970;2023-04-15T10:29:03;15.13;;;12.80;;
3571;SDS011;7958;53.024;12.970;2023-04-15T10:31:30;15.83;;;12.40;;
3571;SDS011;7958;53.024;12.970;2023-04-15T10:33:59;19.73;;;11.63;;
3571;SDS011;7958;53.024;12.970;2023-04-15T10:36:30;13.47;;;11.10;;
3571;SDS011;7958;53.024;12.970;2023-04-15T10:38:56;12.13;;;10.73;;
3571;SDS011;7958;53.024;12.970;2023-04-15T10:41:26;14.07;;;11.63;;
3571;SDS011;7958;53.024;12.970;2023-04-15T10:43:59;12.50;;;11.07;;
3571;SDS011;7958;53.024;12.970;2023-04-15T10:46:33;13.97;;;11.53;;
3571;SDS011;7958;53.024;12.970;2023-04-15T10:49:07;12.37;;;10.83;;
3571;SDS011;7958;53.024;12.970;2023-04-15T10:51:36;13.10;;;11.33;;
3571;SDS011;7958;53.024;12.970;2023-04-15T10:54:06;15.60;;;11.40;;
3571;SDS011;7958;53.024;12.970;2023-04-15T10:56:35;13.60;;;10.60;;
3571;SDS011;7958;53.024;12.970;2023-04-15T10:59:01;12.10;;;10.87;;
3571;SDS011;7958;53.024;12.970;2023-04-15T11:04:21;15.43;;;11.50;;
3571;SDS011;7958;53.024;12.970;2023-04-15T11:07:32;13.70;;;11.00;;
3571;SDS011;7958;53.024;12.970;2023-04-15T11:09:59;14.00;;;11.40;;
3571;SDS011;7958;53.024;12.970;2023-04-15T11:12:32;13.37;;;11.17;;
3571;SDS011;7958;53.024;12.970;2023-04-15T11:14:59;11.40;;;10.10;;
3571;SDS011;7958;53.024;12.970;2023-04-15T11:17:53;14.63;;;11.57;;
3571;SDS011;7958;53.024;12.970;2023-04-15T11:20:21;17.50;;;11.40;;
3571;SDS011;7958;53.024;12.970;2023-04-15T11:22:47;17.83;;;11.90;;
3571;SDS011;7958;53.024;12.970;2023-04-15T11:25:21;12.30;;;10.93;;
3571;SDS011;7958;53.024;12.970;2023-04-15T11:27:48;12.60;;;11.20;;
3571;SDS011;7958;53.024;12.970;2023-04-15T11:30:17;11.73;;;10.53;;
3571;SDS011;7958;53.024;12.970;2023-04-15T11:32:45;18.23;;;12.60;;
3571;SDS011;7958;53.024;12.970;2023-04-15T11:35:11;19.00;;;13.50;;
3571;SDS011;7958;53.024;12.970;2023-04-15T11:37:39;16.70;;;11.70;;
3571;SDS011;7958;53.024;12.970;2023-04-15T11:40:06;17.70;;;12.00;;
3571;SDS011;7958;53.024;12.970;2023-04-15T11:42:33;15.07;;;12.37;;
3571;SDS011;7958;53.024;12.970;2023-04-15T11:45:05;12.13;;;10.20;;
3571;SDS011;7958;53.024;12.970;2023-04-15T11:47:33;12.80;;;11.20;;
3571;SDS011;7958;53.024;12.970;2023-04-15T11:50:12;23.57;;;15.10;;
3571;SDS011;7958;53.024;12.970;2023-04-15T11:52:42;20.90;;;13.73;;
3571;SDS011;7958;53.024;12.970;2023-04-15T11:55:17;16.30;;;13.50;;
3571;SDS011;7958;53.024;12.970;2023-04-15T11:57:43;14.43;;;11.67;;
3571;SDS011;7958;53.024;12.970;2023-04-15T12:00:10;16.00;;;12.37;;
3571;SDS011;7958;53.024;12.970;2023-04-15T12:02:38;13.47;;;11.93;;
3571;SDS011;7958;53.024;12.970;2023-04-15T12:05:04;16.03;;;12.53;;
3571;SDS011;7958;53.024;12.970;2023-04-15T12:07:32;15.30;;;13.10;;
3571;SDS011;7958;53.024;12.970;2023-04-15T12:09:59;13.10;;;11.70;;
3571;SDS011;7958;53.024;12.970;2023-04-15T12:12:26;14.87;;;11.60;;
3571;SDS011;7958;53.024;12.970;2023-04-15T12:14:53;13.87;;;11.83;;
3571;SDS011;7958;53.024;12.970;2023-04-15T12:17:21;14.40;;;11.83;;
3571;SDS011;7958;53.024;12.970;2023-04-15T12:19:54;13.90;;;11.87;;
3571;SDS011;7958;53.024;12.970;2023-04-15T12:22:21;14.60;;;12.17;;
3571;SDS011;7958;53.024;12.970;2023-04-15T12:24:47;14.87;;;12.70;;
3571;SDS011;7958;53.024;12.970;2023-04-15T12:27:24;20.53;;;14.03;;
3571;SDS011;7958;53.024;12.970;2023-04-15T12:29:56;14.13;;;12.00;;
3571;SDS011;7958;53.024;12.970;2023-04-15T12:32:29;13.73;;;11.80;;
3571;SDS011;7958;53.024;12.970;2023-04-15T12:34:55;15.07;;;13.00;;
3571;SDS011;7958;53.024;12.970;2023-04-15T12:37:23;17.80;;;14.30;;
3571;SDS011;7958;53.024;12.970;2023-04-15T12:39:50;21.87;;;14.97;;
3571;SDS011;7958;53.024;12.970;2023-04-15T12:42:20;21.10;;;13.40;;
3571;SDS011;7958;53.024;12.970;2023-04-15T12:44:49;20.47;;;14.97;;
3571;SDS011;7958;53.024;12.970;2023-04-15T12:47:17;20.70;;;13.50;;
3571;SDS011;7958;53.024;12.970;2023-04-15T12:49:46;19.60;;;15.30;;
3571;SDS011;7958;53.024;12.970;2023-04-15T12:52:15;17.23;;;14.57;;
3571;SDS011;7958;53.024;12.970;2023-04-15T12:54:42;13.47;;;12.03;;
3571;SDS011;7958;53.024;12.970;2023-04-15T12:57:08;18.80;;;14.30;;
3571;SDS011;7958;53.024;12.970;2023-04-15T12:59:36;17.67;;;13.90;;
3571;SDS011;7958;53.024;12.970;2023-04-15T13:02:03;17.47;;;12.37;;
3571;SDS011;7958;53.024;12.970;2023-04-15T13:04:29;18.10;;;12.70;;
3571;SDS011;7958;53.024;12.970;2023-04-15T13:06:59;15.90;;;12.47;;
3571;SDS011;7958;53.024;12.970;2023-04-15T13:09:26;25.10;;;14.27;;
3571;SDS011;7958;53.024;12.970;2023-04-15T13:11:53;17.77;;;13.67;;
3571;SDS011;7958;53.024;12.970;2023-04-15T13:14:20;16.17;;;13.10;;
3571;SDS011;7958;53.024;12.970;2023-04-15T13:16:47;16.70;;;13.73;;
3571;SDS011;7958;53.024;12.970;2023-04-15T13:19:14;19.97;;;14.63;;
3571;SDS011;7958;53.024;12.970;2023-04-15T13:21:40;18.73;;;14.33;;
3571;SDS011;7958;53.024;12.970;2023-04-15T13:24:10;20.23;;;14.00;;
3571;SDS011;7958;53.024;12.970;2023-04-15T13:26:36;17.97;;;14.57;;
3571;SDS011;7958;53.024;12.970;2023-04-15T13:29:02;16.07;;;13.63;;
3571;SDS011;7958;53.024;12.970;2023-04-15T13:31:29;16.67;;;13.63;;
3571;SDS011;7958;53.024;12.970;2023-04-15T13:33:57;16.63;;;14.23;;
3571;SDS011;7958;53.024;12.970;2023-04-15T13:36:23;16.63;;;13.80;;
3571;SDS011;7958;53.024;12.970;2023-04-15T13:38:50;17.33;;;14.87;;
3571;SDS011;7958;53.024;12.970;2023-04-15T13:41:17;20.97;;;16.23;;
3571;SDS011;7958;53.024;12.970;2023-04-15T13:43:46;21.23;;;17.23;;
3571;SDS011;7958;53.024;12.970;2023-04-15T13:46:13;27.07;;;19.17;;
3571;SDS011;7958;53.024;12.970;2023-04-15T13:48:39;27.70;;;20.57;;
3571;SDS011;7958;53.024;12.970;2023-04-15T13:51:09;25.97;;;17.70;;
3571;SDS011;7958;53.024;12.970;2023-04-15T13:53:36;25.03;;;18.20;;
3571;SDS011;7958;53.024;12.970;2023-04-15T13:56:02;22.40;;;15.40;;
3571;SDS011;7958;53.024;12.970;2023-04-15T13:58:32;18.50;;;14.10;;
3571;SDS011;7958;53.024;12.970;2023-04-15T14:01:04;17.10;;;14.00;;
3571;SDS011;7958;53.024;12.970;2023-04-15T14:03:36;20.23;;;14.90;;
3571;SDS011;7958;53.024;12.970;2023-04-15T14:06:05;17.20;;;13.80;;
3571;SDS011;7958;53.024;12.970;2023-04-15T14:08:33;17.60;;;14.87;;
3571;SDS011;7958;53.024;12.970;2023-04-15T14:11:00;17.03;;;12.87;;
3571;SDS011;7958;53.024;12.970;2023-04-15T14:13:26;13.60;;;12.20;;
3571;SDS011;7958;53.024;12.970;2023-04-15T14:15:55;16.53;;;12.67;;
3571;SDS011;7958;53.024;12.970;2023-04-15T14:18:22;18.40;;;13.80;;
3571;SDS011;7958;53.024;12.970;2023-04-15T14:20:49;18.90;;;14.20;;
3571;SDS011;7958;53.024;12.970;2023-04-15T14:23:17;16.00;;;13.50;;
3571;SDS011;7958;53.024;12.970;2023-04-15T14:25:45;14.63;;;13.03;;
3571;SDS011;7958;53.024;12.970;2023-04-15T14:28:14;13.87;;;11.20;;
3571;SDS011;7958;53.024;12.970;2023-04-15T14:30:40;14.30;;;12.27;;
3571;SDS011;7958;53.024;12.970;2023-04-15T14:33:07;19.80;;;12.57;;
3571;SDS011;7958;53.024;12.970;2023-04-15T14:35:34;15.80;;;12.77;;
3571;SDS011;7958;53.024;12.970;2023-04-15T14:38:02;16.60;;;13.47;;
3571;SDS011;7958;53.024;12.970;2023-04-15T14:40:30;16.60;;;13.40;;
3571;SDS011;7958;53.024;12.970;2023-04-15T14:43:01;15.57;;;12.60;;